createdAt,value
2018-12-08T00:00:05.129Z,55.97
2018-12-08T00:02:34.229Z,57.23
2018-12-08T00:05:04.138Z,57.57
2018-12-08T00:07:32.613Z,54.17
2018-12-08T00:10:01.732Z,54.93
2018-12-08T00:12:30.333Z,63.87
2018-12-08T00:14:58.761Z,56.47
2018-12-08T00:17:27.609Z,61.90
2018-12-08T00:19:56.269Z,53.33
2018-12-08T00:22:24.940Z,56.53
2018-12-08T00:24:54.112Z,54.93
2018-12-08T00:27:22.505Z,55.33
2018-12-08T00:29:51.008Z,54.07
2018-12-08T00:32:20.217Z,53.43
2018-12-08T00:34:48.863Z,52.07
2018-12-08T00:37:17.248Z,54.63
2018-12-08T00:39:46.173Z,67.03
2018-12-08T00:42:14.855Z,57.67
2018-12-08T00:44:43.638Z,55.30
2018-12-08T00:47:12.637Z,54.60
2018-12-08T00:49:41.233Z,56.77
2018-12-08T00:52:10.837Z,58.13
2018-12-08T00:54:39.636Z,50.60
2018-12-08T00:57:08.011Z,54.57
2018-12-08T00:59:36.785Z,50.30
2018-12-08T01:02:06.646Z,52.90
2018-12-08T01:04:35.219Z,51.53
2018-12-08T01:07:03.877Z,49.93
2018-12-08T01:09:32.596Z,49.40
2018-12-08T01:12:01.257Z,47.90
2018-12-08T01:14:29.934Z,52.23
2018-12-08T01:16:58.696Z,49.47
2018-12-08T01:19:27.221Z,50.80
2018-12-08T01:21:56.207Z,52.40
2018-12-08T01:24:25.225Z,53.63
2018-12-08T01:26:53.882Z,51.87
2018-12-08T01:29:22.410Z,50.37
2018-12-08T01:31:51.609Z,51.17
2018-12-08T01:34:20.184Z,57.33
2018-12-08T01:36:48.916Z,53.57
2018-12-08T01:39:17.898Z,52.63
2018-12-08T01:41:46.433Z,52.57
2018-12-08T01:44:15.012Z,57.77
2018-12-08T01:46:44.141Z,51.07
2018-12-08T01:49:12.568Z,54.50
2018-12-08T01:51:41.109Z,51.77
2018-12-08T01:54:12.555Z,53.67
2018-12-08T01:56:41.225Z,56.03
2018-12-08T01:59:09.994Z,54.47
2018-12-08T02:01:38.964Z,54.70
2018-12-08T02:04:07.484Z,54.50
2018-12-08T02:06:36.101Z,56.07
2018-12-08T02:09:08.528Z,55.17
2018-12-08T02:11:37.239Z,55.47
2018-12-08T02:14:06.010Z,54.63
2018-12-08T02:16:34.772Z,54.77
2018-12-08T02:19:05.032Z,57.83
2018-12-08T02:21:33.725Z,55.70
2018-12-08T02:24:03.232Z,57.03
2018-12-08T02:26:31.917Z,53.83
2018-12-08T02:29:00.593Z,53.87
2018-12-08T02:31:29.450Z,55.67
2018-12-08T02:33:57.972Z,54.37
2018-12-08T02:36:26.562Z,55.60
2018-12-08T02:38:55.417Z,55.30
2018-12-08T02:41:24.857Z,57.30
2018-12-08T02:43:53.641Z,58.23
2018-12-08T02:46:22.389Z,56.93
2018-12-08T02:48:50.820Z,60.10
2018-12-08T02:51:19.505Z,58.77
2018-12-08T02:53:48.497Z,66.07
2018-12-08T02:56:18.393Z,57.30
2018-12-08T02:58:47.004Z,61.00
2018-12-08T03:01:16.124Z,62.67
2018-12-08T03:03:44.849Z,62.10
2018-12-08T03:06:13.563Z,59.13
2018-12-08T03:08:42.401Z,59.03
2018-12-08T03:11:10.949Z,54.90
2018-12-08T03:13:39.701Z,54.93
2018-12-08T03:16:08.590Z,56.97
2018-12-08T03:18:37.113Z,56.73
2018-12-08T03:21:05.796Z,56.70
2018-12-08T03:23:34.798Z,53.80
2018-12-08T03:26:03.854Z,56.27
2018-12-08T03:28:32.345Z,57.37
2018-12-08T03:31:02.250Z,61.70
2018-12-08T03:33:30.640Z,56.33
2018-12-08T03:35:59.157Z,58.30
2018-12-08T03:38:27.865Z,61.20
2018-12-08T03:40:56.516Z,56.97
2018-12-08T03:43:25.060Z,56.20
2018-12-08T03:45:53.733Z,57.90
2018-12-08T03:48:22.386Z,56.13
2018-12-08T03:50:51.161Z,61.37
2018-12-08T03:53:19.815Z,57.40
2018-12-08T03:55:48.349Z,56.30
2018-12-08T03:58:17.645Z,54.50
2018-12-08T04:00:47.009Z,61.17
2018-12-08T04:03:15.557Z,57.10
2018-12-08T04:05:44.216Z,56.93
2018-12-08T04:08:13.313Z,57.93
2018-12-08T04:10:42.000Z,60.87
2018-12-08T04:13:10.521Z,61.93
2018-12-08T04:15:39.657Z,58.87
2018-12-08T04:18:08.376Z,60.07
2018-12-08T04:20:36.985Z,55.40
2018-12-08T04:23:05.876Z,63.80
2018-12-08T04:25:34.315Z,69.90
2018-12-08T04:28:03.509Z,56.27
2018-12-08T04:30:32.445Z,57.37
2018-12-08T04:33:01.008Z,63.60
2018-12-08T04:35:29.620Z,65.97
2018-12-08T04:37:58.312Z,57.33
2018-12-08T04:40:26.797Z,62.73
2018-12-08T04:42:55.372Z,56.13
2018-12-08T04:45:24.369Z,72.57
2018-12-08T04:47:53.092Z,58.50
2018-12-08T04:50:21.512Z,63.63
2018-12-08T04:52:50.566Z,64.60
2018-12-08T04:55:19.193Z,66.27
2018-12-08T04:57:47.972Z,63.20
2018-12-08T05:00:17.492Z,61.23
2018-12-08T05:02:46.176Z,58.50
2018-12-08T05:05:14.957Z,59.93
2018-12-08T05:07:43.841Z,67.53
2018-12-08T05:10:12.272Z,59.23
2018-12-08T05:12:40.853Z,70.40
2018-12-08T05:15:09.712Z,60.10
2018-12-08T05:17:38.468Z,59.83
2018-12-08T05:20:07.183Z,64.67
2018-12-08T05:22:36.043Z,66.37
2018-12-08T05:25:04.569Z,64.10
2018-12-08T05:27:33.261Z,55.40
2018-12-08T05:30:02.910Z,48.97
2018-12-08T05:32:31.381Z,59.43
2018-12-08T05:35:00.201Z,61.97
2018-12-08T05:37:29.201Z,59.07
2018-12-08T05:39:57.609Z,54.10
2018-12-08T05:42:26.203Z,51.60
2018-12-08T05:44:55.292Z,54.00
2018-12-08T05:47:23.904Z,42.27
2018-12-08T05:49:51.910Z,51.00
2018-12-08T05:52:21.404Z,37.47
2018-12-08T05:54:49.873Z,39.83
2018-12-08T05:57:18.433Z,42.33
2018-12-08T05:59:47.281Z,47.23
2018-12-08T06:02:16.968Z,29.40
2018-12-08T06:04:45.536Z,29.63
2018-12-08T06:07:14.537Z,29.53
2018-12-08T06:09:42.876Z,27.27
2018-12-08T06:12:11.472Z,26.40
2018-12-08T06:14:40.446Z,19.90
2018-12-08T06:17:09.049Z,23.43
2018-12-08T06:19:37.700Z,20.97
2018-12-08T06:22:06.686Z,13.33
2018-12-08T06:24:35.145Z,19.47
2018-12-08T06:27:05.336Z,17.40
2018-12-08T06:29:34.052Z,11.30
2018-12-08T06:32:03.577Z,17.60
2018-12-08T06:34:32.140Z,12.00
2018-12-08T06:37:01.235Z,18.80
2018-12-08T06:39:29.963Z,11.63
2018-12-08T06:41:58.317Z,13.90
2018-12-08T06:44:27.645Z,14.10
2018-12-08T06:46:56.096Z,10.53
2018-12-08T06:49:24.676Z,16.20
2018-12-08T06:51:53.568Z,10.03
2018-12-08T06:54:22.292Z,14.83
2018-12-08T06:56:50.687Z,12.70
2018-12-08T06:59:19.666Z,8.47
2018-12-08T07:01:48.194Z,12.23
2018-12-08T07:04:17.828Z,11.43
2018-12-08T07:06:46.698Z,11.83
2018-12-08T07:09:15.273Z,7.90
2018-12-08T07:11:43.962Z,15.50
2018-12-08T07:14:12.891Z,14.40
2018-12-08T07:16:41.439Z,10.97
2018-12-08T07:19:10.048Z,17.87
2018-12-08T07:21:39.143Z,10.23
2018-12-08T07:24:07.874Z,10.83
2018-12-08T07:26:36.259Z,13.30
2018-12-08T07:29:05.145Z,10.73
2018-12-08T07:31:33.668Z,12.27
2018-12-08T07:34:02.353Z,8.57
2018-12-08T07:36:31.349Z,16.77
2018-12-08T07:39:00.125Z,11.47
2018-12-08T07:41:28.583Z,12.23
2018-12-08T07:43:57.647Z,13.27
2018-12-08T07:46:26.202Z,11.00
2018-12-08T07:48:54.989Z,14.07
2018-12-08T07:51:23.573Z,12.30
2018-12-08T07:53:52.160Z,12.40
2018-12-08T07:56:20.740Z,14.70
2018-12-08T07:58:49.840Z,9.47
2018-12-08T08:01:18.592Z,11.23
2018-12-08T08:03:46.941Z,9.47
2018-12-08T08:06:17.265Z,14.27
2018-12-08T08:08:45.843Z,10.80
2018-12-08T08:11:14.464Z,13.97
2018-12-08T08:13:43.229Z,12.77
2018-12-08T08:16:11.777Z,11.33
2018-12-08T08:18:40.394Z,11.80
2018-12-08T08:21:09.564Z,8.87
2018-12-08T08:23:38.313Z,22.07
2018-12-08T08:26:06.714Z,8.23
2018-12-08T08:28:35.345Z,11.10
2018-12-08T08:31:04.069Z,11.40
2018-12-08T08:33:32.525Z,12.13
2018-12-08T08:36:01.491Z,11.00
2018-12-08T08:38:30.163Z,15.53
2018-12-08T08:40:58.639Z,10.50
2018-12-08T08:43:27.224Z,7.10
2018-12-08T08:45:56.085Z,10.07
2018-12-08T08:48:24.777Z,20.97
2018-12-08T08:50:53.460Z,12.53
2018-12-08T08:53:21.998Z,7.40
2018-12-08T08:55:50.737Z,17.20
2018-12-08T08:58:19.256Z,11.67
2018-12-08T09:00:47.839Z,9.67
2018-12-08T09:03:16.627Z,16.00
2018-12-08T09:05:45.376Z,12.37
2018-12-08T09:08:15.209Z,7.87
2018-12-08T09:10:43.765Z,6.17
2018-12-08T09:13:12.568Z,10.37
2018-12-08T09:15:41.194Z,8.43
2018-12-08T09:18:09.947Z,8.90
2018-12-08T09:20:38.633Z,8.30
2018-12-08T09:23:07.181Z,11.50
2018-12-08T09:25:35.933Z,9.90
2018-12-08T09:28:04.669Z,11.87
2018-12-08T09:30:33.221Z,8.27
2018-12-08T09:33:01.968Z,12.70
2018-12-08T09:35:30.756Z,13.73
2018-12-08T09:37:59.285Z,7.43
2018-12-08T09:40:27.966Z,13.00
2018-12-08T09:42:56.828Z,6.33
2018-12-08T09:45:25.340Z,8.07
2018-12-08T09:47:54.029Z,10.90
2018-12-08T09:50:22.869Z,7.93
2018-12-08T09:52:58.742Z,7.03
2018-12-08T09:55:27.592Z,11.27
2018-12-08T09:57:56.321Z,7.77
2018-12-08T10:00:24.709Z,5.90
2018-12-08T10:02:53.688Z,7.33
2018-12-08T10:05:22.222Z,20.63
2018-12-08T10:07:50.965Z,6.17
2018-12-08T10:10:20.961Z,8.47
2018-12-08T10:12:49.533Z,7.63
2018-12-08T10:15:17.961Z,7.30
2018-12-08T10:17:46.469Z,10.87
2018-12-08T10:20:15.143Z,7.83
2018-12-08T10:22:43.677Z,7.57
2018-12-08T10:25:12.428Z,7.13
2018-12-08T10:27:42.740Z,8.80
2018-12-08T10:30:11.436Z,4.87
2018-12-08T10:32:40.337Z,11.23
2018-12-08T10:35:10.584Z,9.50
2018-12-08T10:37:39.428Z,7.60
2018-12-08T10:40:09.155Z,6.73
2018-12-08T10:42:37.760Z,8.17
2018-12-08T10:45:06.953Z,8.23
2018-12-08T10:47:36.068Z,7.40
2018-12-08T10:50:05.580Z,20.23
2018-12-08T10:52:34.174Z,8.23
2018-12-08T10:55:04.543Z,7.73
2018-12-08T10:57:33.078Z,9.37
2018-12-08T11:00:02.388Z,5.63
2018-12-08T11:02:35.545Z,11.10
2018-12-08T11:05:05.144Z,7.87
2018-12-08T11:07:33.861Z,9.27
2018-12-08T11:10:02.858Z,14.30
2018-12-08T11:12:32.522Z,6.07
2018-12-08T11:15:01.145Z,10.03
2018-12-08T11:17:30.140Z,10.13
2018-12-08T11:19:58.680Z,8.60
2018-12-08T11:22:27.333Z,7.03
2018-12-08T11:24:56.309Z,9.13
2018-12-08T11:27:25.286Z,14.13
2018-12-08T11:29:53.785Z,6.27
2018-12-08T11:32:22.357Z,5.80
2018-12-08T11:34:51.032Z,4.40
2018-12-08T11:37:20.572Z,7.03
2018-12-08T11:39:49.333Z,5.20
2018-12-08T11:42:17.976Z,6.73
2018-12-08T11:44:46.687Z,6.60
2018-12-08T11:47:15.454Z,9.30
2018-12-08T11:49:45.569Z,7.13
2018-12-08T11:52:14.203Z,7.00
2018-12-08T11:54:43.201Z,13.07
2018-12-08T11:57:11.649Z,8.80
2018-12-08T11:59:40.193Z,6.00
2018-12-08T12:02:16.356Z,5.80
2018-12-08T12:04:39.774Z,7.23
2018-12-08T12:07:08.537Z,8.17
2018-12-08T12:09:37.210Z,12.67
2018-12-08T12:12:05.776Z,9.37
2018-12-08T12:14:45.690Z,7.23
2018-12-08T12:17:14.286Z,7.13
2018-12-08T12:19:42.971Z,11.87
2018-12-08T12:22:11.818Z,11.60
2018-12-08T12:24:40.268Z,8.97
2018-12-08T12:27:08.833Z,4.00
2018-12-08T12:29:37.860Z,9.67
2018-12-08T12:32:08.395Z,6.73
2018-12-08T12:34:36.870Z,5.27
2018-12-08T12:37:07.600Z,10.53
2018-12-08T12:39:36.509Z,8.50
2018-12-08T12:42:04.986Z,9.57
2018-12-08T12:44:34.001Z,11.37
2018-12-08T12:47:02.545Z,12.17
2018-12-08T12:49:31.200Z,9.20
2018-12-08T12:52:00.108Z,6.07
2018-12-08T12:54:28.621Z,9.40
2018-12-08T12:56:57.965Z,10.03
2018-12-08T12:59:26.684Z,11.97
2018-12-08T13:01:55.366Z,6.00
2018-12-08T13:04:23.815Z,10.73
2018-12-08T13:06:53.184Z,6.57
2018-12-08T13:09:21.870Z,5.57
2018-12-08T13:11:50.646Z,7.00
2018-12-08T13:14:19.449Z,5.80
2018-12-08T13:16:48.947Z,7.77
2018-12-08T13:19:17.572Z,5.33
2018-12-08T13:21:46.358Z,7.83
2018-12-08T13:24:14.786Z,5.63
2018-12-08T13:26:43.411Z,10.10
2018-12-08T13:29:12.320Z,11.00
2018-12-08T13:31:40.814Z,8.60
2018-12-08T13:34:22.904Z,16.30
2018-12-08T13:36:51.605Z,9.13
2018-12-08T13:39:20.065Z,8.73
2018-12-08T13:41:48.918Z,5.67
2018-12-08T13:44:28.946Z,6.73
2018-12-08T13:46:57.961Z,8.07
2018-12-08T13:49:26.564Z,8.73
2018-12-08T13:51:55.331Z,10.33
2018-12-08T13:54:35.649Z,9.13
2018-12-08T13:57:05.110Z,6.07
2018-12-08T13:59:33.777Z,7.30
2018-12-08T14:02:03.293Z,11.37
2018-12-08T14:04:31.897Z,11.00
2018-12-08T14:07:00.336Z,9.63
2018-12-08T14:09:29.182Z,11.57
2018-12-08T14:11:57.832Z,7.97
2018-12-08T14:14:26.608Z,16.67
2018-12-08T14:16:56.536Z,11.77
2018-12-08T14:19:25.185Z,13.20
2018-12-08T14:21:53.581Z,12.13
2018-12-08T14:24:22.532Z,9.10
2018-12-08T14:26:51.137Z,9.60
2018-12-08T14:29:19.553Z,8.07
2018-12-08T14:31:48.720Z,10.03
2018-12-08T14:34:17.521Z,8.50
2018-12-08T14:36:46.036Z,11.50
2018-12-08T14:39:14.953Z,12.03
2018-12-08T14:41:44.608Z,7.93
2018-12-08T14:44:13.225Z,11.50
2018-12-08T14:46:42.561Z,7.70
2018-12-08T14:49:11.136Z,9.53
2018-12-08T14:51:39.564Z,8.60
2018-12-08T14:54:08.380Z,11.60
2018-12-08T14:56:36.998Z,10.07
2018-12-08T14:59:05.716Z,10.40
2018-12-08T15:01:34.381Z,9.63
2018-12-08T15:04:02.928Z,15.40
2018-12-08T15:06:31.676Z,13.50
2018-12-08T15:09:00.614Z,9.70
2018-12-08T15:11:29.060Z,12.63
2018-12-08T15:13:57.577Z,11.30
2018-12-08T15:16:26.884Z,15.47
2018-12-08T15:18:56.424Z,15.47
2018-12-08T15:21:24.993Z,8.47
2018-12-08T15:23:53.865Z,12.33
2018-12-08T15:26:22.637Z,6.53
2018-12-08T15:28:51.164Z,10.77
2018-12-08T15:31:20.025Z,8.03
2018-12-08T15:33:48.631Z,10.67
2018-12-08T15:36:17.389Z,15.33
2018-12-08T15:38:46.260Z,7.20
2018-12-08T15:41:15.480Z,9.80
2018-12-08T15:43:44.000Z,8.83
2018-12-08T15:46:12.974Z,12.53
2018-12-08T15:48:41.580Z,11.40
2018-12-08T15:51:10.004Z,11.50
2018-12-08T15:53:38.928Z,11.93
2018-12-08T15:56:08.050Z,8.07
2018-12-08T15:58:36.738Z,25.97
2018-12-08T16:01:05.436Z,13.10
2018-12-08T16:03:33.912Z,15.87
2018-12-08T16:06:02.464Z,14.07
2018-12-08T16:08:31.489Z,14.00
2018-12-08T16:11:00.136Z,11.63
2018-12-08T16:13:28.601Z,12.40
2018-12-08T16:15:57.416Z,17.80
2018-12-08T16:18:25.934Z,9.63
2018-12-08T16:20:55.513Z,10.00
2018-12-08T16:23:24.574Z,9.20
2018-12-08T16:25:53.116Z,17.70
2018-12-08T16:28:21.844Z,12.00
2018-12-08T16:30:50.610Z,13.77
2018-12-08T16:33:19.381Z,11.73
2018-12-08T16:35:47.973Z,16.00
2018-12-08T16:38:17.160Z,11.07
2018-12-08T16:40:45.829Z,10.93
2018-12-08T16:43:14.636Z,13.23
2018-12-08T16:45:43.260Z,19.03
2018-12-08T16:48:11.822Z,13.20
2018-12-08T16:50:41.106Z,11.93
2018-12-08T16:53:09.885Z,10.70
2018-12-08T16:55:38.528Z,8.63
2018-12-08T16:58:06.938Z,10.83
2018-12-08T17:00:35.841Z,17.00
2018-12-08T17:03:04.476Z,45.13
2018-12-08T17:05:33.336Z,26.13
2018-12-08T17:08:02.394Z,34.47
2018-12-08T17:10:31.092Z,24.43
2018-12-08T17:12:59.617Z,28.80
2018-12-08T17:15:28.684Z,52.57
2018-12-08T17:17:57.293Z,26.63
2018-12-08T17:20:26.057Z,26.80
2018-12-08T17:22:56.245Z,28.67
2018-12-08T17:25:24.768Z,9.17
2018-12-08T17:27:53.486Z,12.77
2018-12-08T17:30:22.231Z,10.23
2018-12-08T17:32:50.825Z,13.83
2018-12-08T17:35:19.577Z,8.27
2018-12-08T17:37:48.289Z,16.40
2018-12-08T17:40:16.889Z,9.50
2018-12-08T17:42:45.579Z,11.00
2018-12-08T17:45:14.579Z,11.80
2018-12-08T17:47:43.252Z,14.87
2018-12-08T17:50:11.905Z,12.27
2018-12-08T17:52:40.692Z,12.53
2018-12-08T17:55:09.316Z,11.13
2018-12-08T17:57:38.006Z,8.00
2018-12-08T18:00:07.468Z,14.67
2018-12-08T18:02:36.161Z,10.47
2018-12-08T18:05:04.577Z,8.67
2018-12-08T18:07:34.993Z,12.23
2018-12-08T18:10:05.661Z,14.87
2018-12-08T18:12:34.536Z,8.27
2018-12-08T18:15:03.629Z,7.57
2018-12-08T18:17:32.313Z,11.80
2018-12-08T18:20:01.315Z,8.97
2018-12-08T18:22:30.183Z,11.20
2018-12-08T18:25:00.313Z,9.73
2018-12-08T18:27:29.078Z,13.20
2018-12-08T18:29:57.703Z,10.00
2018-12-08T18:32:26.477Z,7.20
2018-12-08T18:34:55.576Z,9.80
2018-12-08T18:37:24.053Z,8.40
2018-12-08T18:39:52.679Z,8.57
2018-12-08T18:42:21.759Z,5.17
2018-12-08T18:44:50.442Z,12.23
2018-12-08T18:47:18.908Z,9.10
2018-12-08T18:49:47.718Z,7.50
2018-12-08T18:52:16.430Z,10.43
2018-12-08T18:54:45.175Z,10.00
2018-12-08T18:57:13.927Z,10.50
2018-12-08T18:59:42.470Z,7.93
2018-12-08T19:02:11.046Z,6.27
2018-12-08T19:04:39.765Z,6.13
2018-12-08T19:07:08.331Z,7.67
2018-12-08T19:09:37.006Z,13.60
2018-12-08T19:12:06.102Z,18.13
2018-12-08T19:14:34.854Z,18.00
2018-12-08T19:17:06.066Z,17.10
2018-12-08T19:19:34.786Z,18.40
2018-12-08T19:22:04.153Z,18.27
2018-12-08T19:24:32.858Z,16.53
2018-12-08T19:27:03.058Z,23.50
2018-12-08T19:29:31.726Z,21.33
2018-12-08T19:32:01.018Z,23.17
2018-12-08T19:34:29.497Z,28.40
2018-12-08T19:36:58.101Z,25.47
2018-12-08T19:39:27.093Z,25.27
2018-12-08T19:41:55.780Z,25.33
2018-12-08T19:44:24.467Z,29.17
2018-12-08T19:46:53.248Z,21.87
2018-12-08T19:49:21.850Z,26.17
2018-12-08T19:51:50.433Z,21.67
2018-12-08T19:54:19.529Z,25.53
2018-12-08T19:56:48.270Z,15.87
2018-12-08T19:59:16.725Z,27.10
2018-12-08T20:01:45.731Z,24.50
2018-12-08T20:04:14.298Z,17.47
2018-12-08T20:06:43.047Z,20.87
2018-12-08T20:09:11.805Z,23.90
2018-12-08T20:11:40.342Z,24.03
2018-12-08T20:14:09.018Z,19.50
2018-12-08T20:16:38.013Z,19.93
2018-12-08T20:19:06.478Z,16.73
2018-12-08T20:21:35.090Z,23.23
2018-12-08T20:24:04.087Z,15.53
2018-12-08T20:26:32.826Z,21.23
2018-12-08T20:29:02.866Z,13.53
2018-12-08T20:31:31.682Z,18.17
2018-12-08T20:34:00.429Z,18.37
2018-12-08T20:36:28.821Z,17.67
2018-12-08T20:38:57.877Z,15.43
2018-12-08T20:41:26.534Z,17.23
2018-12-08T20:43:55.277Z,17.00
2018-12-08T20:46:25.858Z,25.60
2018-12-08T20:48:54.509Z,12.90
2018-12-08T20:51:23.127Z,23.53
2018-12-08T20:53:52.038Z,16.47
2018-12-08T20:56:20.762Z,14.57
2018-12-08T20:58:49.222Z,12.60
2018-12-08T21:01:17.974Z,18.63
2018-12-08T21:03:46.826Z,12.83
2018-12-08T21:06:15.217Z,17.40
2018-12-08T21:08:44.209Z,13.63
2018-12-08T21:11:12.836Z,13.83
2018-12-08T21:13:41.574Z,16.90
2018-12-08T21:16:10.233Z,30.27
2018-12-08T21:18:38.810Z,19.43
2018-12-08T21:21:07.536Z,21.27
2018-12-08T21:23:36.259Z,23.73
2018-12-08T21:26:04.850Z,16.70
2018-12-08T21:28:33.458Z,14.97
2018-12-08T21:31:04.121Z,18.03
2018-12-08T21:33:32.837Z,16.07
2018-12-08T21:36:01.706Z,16.93
2018-12-08T21:38:30.440Z,18.80
2018-12-08T21:40:59.046Z,19.00
2018-12-08T21:43:27.765Z,14.73
2018-12-08T21:45:56.660Z,17.17
2018-12-08T21:48:25.186Z,15.47
2018-12-08T21:50:53.795Z,13.37
2018-12-08T21:53:24.294Z,13.50
2018-12-08T21:55:52.748Z,17.50
2018-12-08T21:58:21.266Z,18.13
2018-12-08T22:00:50.184Z,22.97
2018-12-08T22:03:18.902Z,9.90
2018-12-08T22:05:47.427Z,23.43
2018-12-08T22:08:16.223Z,20.73
2018-12-08T22:10:45.658Z,15.20
2018-12-08T22:13:14.237Z,20.33
2018-12-08T22:15:42.978Z,17.37
2018-12-08T22:18:11.514Z,18.53
2018-12-08T22:20:40.089Z,12.97
2018-12-08T22:23:09.057Z,18.20
2018-12-08T22:25:37.569Z,13.60
2018-12-08T22:28:06.149Z,19.03
2018-12-08T22:30:35.078Z,14.17
2018-12-08T22:33:04.943Z,11.23
2018-12-08T22:35:33.651Z,17.37
2018-12-08T22:38:02.272Z,19.60
2018-12-08T22:40:30.807Z,14.90
2018-12-08T22:42:59.477Z,13.43
2018-12-08T22:45:28.503Z,12.87
2018-12-08T22:47:56.938Z,14.00
2018-12-08T22:50:25.542Z,13.53
2018-12-08T22:52:54.879Z,13.53
2018-12-08T22:55:23.526Z,17.97
2018-12-08T22:57:52.053Z,11.90
2018-12-08T23:00:36.042Z,16.93
2018-12-08T23:03:04.523Z,18.17
2018-12-08T23:05:33.161Z,21.93
2018-12-08T23:08:02.046Z,15.53
2018-12-08T23:10:30.702Z,20.20
2018-12-08T23:12:59.294Z,17.60
2018-12-08T23:15:28.210Z,19.93
2018-12-08T23:17:56.956Z,22.93
2018-12-08T23:20:25.493Z,18.47
2018-12-08T23:22:54.560Z,15.23
2018-12-08T23:25:23.162Z,12.93
2018-12-08T23:27:51.910Z,18.07
2018-12-08T23:30:20.476Z,15.20
2018-12-08T23:32:49.017Z,15.10
2018-12-08T23:35:18.397Z,12.77
2018-12-08T23:37:47.423Z,18.30
2018-12-08T23:40:16.166Z,13.03
2018-12-08T23:42:44.698Z,19.57
2018-12-08T23:45:13.769Z,10.80
2018-12-08T23:47:42.374Z,10.80
2018-12-08T23:50:10.801Z,14.70
2018-12-08T23:52:39.625Z,14.50
2018-12-08T23:55:08.242Z,15.73
2018-12-08T23:57:36.927Z,11.60
